Мюнхен, Германия

03 09, 2015 01:45 CEST (GMT +0200)
Munich Airport | | Change Station
CLOSE
Current Station
Аэропорт
Location: Munich,
Высота над уровнем моря: 1486 ft
Ближайшие Погодные Станции

В.н.у.м. 1486 ft 48.35 °N, 11.81 °E | Updated 25 minutes ago

Clear
Ясно
55 °F
Ощущается Как 55 °F
С
4
Ветер переменчевый Ветер от В-СВ

Сегодня
Высокий -- | Низкий -- °F
--% Вероятн. осадков
Вчера
Высокий -- | Низкий -- °F
Precip. -- дюймов
6:33 AM 7:51 PM
Убывающая луна, 76% visible
Давление 30.01 дюймов
Видимость -9999.0 милиь
Облачность
Точка Росы 54 °F
Влажность воздуха 94%
Дождь 0.00 дюймов
Глубина снега Нет в наличии.
УФ Нет в наличии.
Пыльца Нет в наличии.
Качество воздуха Нет в наличии.
Flu Activity Нет в наличии.
METAR EDDM 022320Z 06003KT 030V090 CAVOK 13/12 Q1016 NOSIG
Давление 30.01 дюймов
Видимость -9999.0 милиь
Облачность
Точка Росы 54 °F
Влажность воздуха 94%
Дождь 0.00 дюймов
Глубина снега Нет в наличии.
УФ Нет в наличии.
Пыльца Нет в наличии.
Качество воздуха Нет в наличии.
Flu Activity Нет в наличии.
METAR EDDM 022320Z 06003KT 030V090 CAVOK 13/12 Q1016 NOSIG

10-Day Weather Forecast

×

Almanac

Астрономические явления

Sep. 03, 2015 Восход Закат
Настоящее время
Гражданские сумерки
Навигационные сумерки
Астрономические сумерки
Луна
Длительность светового времени
Продолжительность Дня
Tomorrow will be .
, % of the Moon is Illuminated

Сегодняшние Экстремальные Показания

Country Highs Country Lows

Community

WunderPhotos

Upload Photos

1,851,841 фотографии загружены!

WunderBlogs® & News

Nearby

Качество воздуха

  Качество воздуха Индекс AQ Загрязнитель
Not available.

Глубина Снега

Station Depth Высота над уровнем моря

Сейсмическая активность

Город Distance Mag. Time & Date
Minimum magnitude displayed is 2.5.

Температура Прибрежных Вод

Место Температура

Stations

Ближайшие Погодные Станции

Местонахождение Темп. Температура с учетом ветра Точка Росы Влажность воздуха Ветер Precip. В.н.у.м. Последняя сводка Тип